sensor_id;sensor_type;location;lat;lon;timestamp;pressure;altitude;pressure_sealevel;temperature;humidity
15529;BME280;7866;52.280;9.500;2022-09-09T00:03:12;99665.03;;;15.38;93.75
15529;BME280;7866;52.280;9.500;2022-09-09T00:08:20;99665.53;;;15.28;93.57
15529;BME280;7866;52.280;9.500;2022-09-09T00:13:29;99668.00;;;15.30;94.08
15529;BME280;7866;52.280;9.500;2022-09-09T00:18:44;99665.38;;;15.16;94.09
15529;BME280;7866;52.280;9.500;2022-09-09T00:23:51;99658.13;;;15.17;94.41
15529;BME280;7866;52.280;9.500;2022-09-09T00:29:03;99659.53;;;15.19;94.25
15529;BME280;7866;52.280;9.500;2022-09-09T00:34:11;99647.50;;;15.22;94.12
15529;BME280;7866;52.280;9.500;2022-09-09T00:39:27;99656.00;;;15.19;93.96
15529;BME280;7866;52.280;9.500;2022-09-09T00:44:32;99650.88;;;15.11;93.99
15529;BME280;7866;52.280;9.500;2022-09-09T00:49:42;99641.13;;;15.10;94.08
15529;BME280;7866;52.280;9.500;2022-09-09T00:54:55;99651.50;;;15.13;94.10
15529;BME280;7866;52.280;9.500;2022-09-09T01:00:18;99635.06;;;15.21;93.82
15529;BME280;7866;52.280;9.500;2022-09-09T01:05:24;99647.34;;;15.10;93.72
15529;BME280;7866;52.280;9.500;2022-09-09T01:10:37;99645.47;;;15.11;93.43
15529;BME280;7866;52.280;9.500;2022-09-09T01:15:42;99639.66;;;15.14;94.06
15529;BME280;7866;52.280;9.500;2022-09-09T01:20:53;99636.41;;;14.98;93.64
15529;BME280;7866;52.280;9.500;2022-09-09T01:26:11;99632.88;;;15.05;93.23
15529;BME280;7866;52.280;9.500;2022-09-09T01:31:17;99636.34;;;15.12;93.12
15529;BME280;7866;52.280;9.500;2022-09-09T01:36:26;99641.94;;;15.17;92.51
15529;BME280;7866;52.280;9.500;2022-09-09T01:41:32;99627.88;;;15.08;92.09
15529;BME280;7866;52.280;9.500;2022-09-09T01:46:34;99638.03;;;15.06;91.96
15529;BME280;7866;52.280;9.500;2022-09-09T01:51:37;99638.03;;;15.06;92.55
15529;BME280;7866;52.280;9.500;2022-09-09T01:56:47;99639.66;;;15.14;91.83
15529;BME280;7866;52.280;9.500;2022-09-09T02:02:05;99652.75;;;15.10;91.12
15529;BME280;7866;52.280;9.500;2022-09-09T02:07:28;99641.31;;;15.15;90.81
15529;BME280;7866;52.280;9.500;2022-09-09T02:12:35;99642.94;;;15.16;90.87
15529;BME280;7866;52.280;9.500;2022-09-09T02:17:41;99647.31;;;15.17;91.21
15529;BME280;7866;52.280;9.500;2022-09-09T02:22:45;99646.88;;;15.20;90.69
15529;BME280;7866;52.280;9.500;2022-09-09T02:27:51;99633.59;;;15.25;90.71
15529;BME280;7866;52.280;9.500;2022-09-09T02:32:54;99633.63;;;15.18;90.63
15529;BME280;7866;52.280;9.500;2022-09-09T02:38:01;99620.75;;;15.20;91.15
15529;BME280;7866;52.280;9.500;2022-09-09T02:43:04;99637.50;;;15.29;90.26
15529;BME280;7866;52.280;9.500;2022-09-09T02:48:10;99638.28;;;15.36;90.23
15529;BME280;7866;52.280;9.500;2022-09-09T02:53:17;99634.44;;;15.50;89.69
15529;BME280;7866;52.280;9.500;2022-09-09T02:58:22;99632.16;;;15.47;89.23
15529;BME280;7866;52.280;9.500;2022-09-09T03:03:25;99637.75;;;15.52;89.18
15529;BME280;7866;52.280;9.500;2022-09-09T03:08:27;99643.16;;;15.52;89.00
15529;BME280;7866;52.280;9.500;2022-09-09T03:13:30;99654.38;;;15.49;89.34
15529;BME280;7866;52.280;9.500;2022-09-09T03:18:32;99657.25;;;15.55;89.62
15529;BME280;7866;52.280;9.500;2022-09-09T03:23:34;99651.41;;;15.58;89.66
15529;BME280;7866;52.280;9.500;2022-09-09T03:28:37;99658.88;;;15.56;89.73
15529;BME280;7866;52.280;9.500;2022-09-09T03:33:39;99637.69;;;15.59;89.99
15529;BME280;7866;52.280;9.500;2022-09-09T03:38:41;99644.53;;;15.62;90.03
15529;BME280;7866;52.280;9.500;2022-09-09T03:43:44;99640.19;;;15.61;89.68
15529;BME280;7866;52.280;9.500;2022-09-09T03:48:46;99642.06;;;15.60;89.42
15529;BME280;7866;52.280;9.500;2022-09-09T03:53:48;99632.91;;;15.68;89.48
15529;BME280;7866;52.280;9.500;2022-09-09T03:58:51;99633.25;;;15.71;89.45
15529;BME280;7866;52.280;9.500;2022-09-09T04:03:52;99636.81;;;15.72;89.34
15529;BME280;7866;52.280;9.500;2022-09-09T04:08:58;99645.66;;;15.79;89.11
15529;BME280;7866;52.280;9.500;2022-09-09T04:14:01;99645.66;;;15.79;88.91
15529;BME280;7866;52.280;9.500;2022-09-09T04:19:03;99643.78;;;15.80;89.21
15529;BME280;7866;52.280;9.500;2022-09-09T04:24:06;99642.09;;;15.85;88.66
15529;BME280;7866;52.280;9.500;2022-09-09T04:29:09;99647.50;;;15.85;88.86
15529;BME280;7866;52.280;9.500;2022-09-09T04:34:11;99648.75;;;15.83;89.09
15529;BME280;7866;52.280;9.500;2022-09-09T04:39:13;99646.69;;;15.85;88.86
15529;BME280;7866;52.280;9.500;2022-09-09T04:44:16;99646.28;;;15.81;88.55
15529;BME280;7866;52.280;9.500;2022-09-09T04:49:17;99645.84;;;15.84;88.85
15529;BME280;7866;52.280;9.500;2022-09-09T04:54:19;99653.34;;;15.82;88.76
15529;BME280;7866;52.280;9.500;2022-09-09T04:59:23;99650.41;;;15.84;88.57
15529;BME280;7866;52.280;9.500;2022-09-09T05:04:24;99652.91;;;15.85;88.56
15529;BME280;7866;52.280;9.500;2022-09-09T05:09:26;99661.16;;;15.90;88.39
15529;BME280;7866;52.280;9.500;2022-09-09T05:14:29;99667.38;;;15.91;88.16
15529;BME280;7866;52.280;9.500;2022-09-09T05:19:31;99676.25;;;15.98;87.77
15529;BME280;7866;52.280;9.500;2022-09-09T05:24:33;99674.81;;;15.95;87.92
15529;BME280;7866;52.280;9.500;2022-09-09T05:29:36;99670.47;;;15.94;88.31
15529;BME280;7866;52.280;9.500;2022-09-09T05:34:37;99667.94;;;15.99;88.05
15529;BME280;7866;52.280;9.500;2022-09-09T05:39:39;99678.72;;;15.99;88.10
15529;BME280;7866;52.280;9.500;2022-09-09T05:44:42;99692.19;;;16.06;88.04
15529;BME280;7866;52.280;9.500;2022-09-09T05:49:45;99688.81;;;16.11;87.78
15529;BME280;7866;52.280;9.500;2022-09-09T05:54:47;99685.69;;;16.14;87.54
15529;BME280;7866;52.280;9.500;2022-09-09T05:59:50;99698.25;;;16.26;87.41
15529;BME280;7866;52.280;9.500;2022-09-09T06:04:51;99684.53;;;16.28;87.28
15529;BME280;7866;52.280;9.500;2022-09-09T06:09:53;99687.50;;;16.20;88.28
15529;BME280;7866;52.280;9.500;2022-09-09T06:14:57;99683.13;;;16.19;88.22
15529;BME280;7866;52.280;9.500;2022-09-09T06:20:01;99679.06;;;16.10;89.48
15529;BME280;7866;52.280;9.500;2022-09-09T06:25:05;99680.78;;;16.04;90.59
15529;BME280;7866;52.280;9.500;2022-09-09T06:30:09;99680.78;;;16.04;90.79
15529;BME280;7866;52.280;9.500;2022-09-09T06:35:11;99679.50;;;16.07;90.87
15529;BME280;7866;52.280;9.500;2022-09-09T06:40:13;99685.91;;;16.12;90.54
15529;BME280;7866;52.280;9.500;2022-09-09T06:45:17;99682.97;;;16.14;90.87
15529;BME280;7866;52.280;9.500;2022-09-09T06:50:18;99691.56;;;16.29;90.75
15529;BME280;7866;52.280;9.500;2022-09-09T06:55:21;99692.59;;;16.53;89.83
15529;BME280;7866;52.280;9.500;2022-09-09T07:00:24;99685.44;;;17.14;87.98
15529;BME280;7866;52.280;9.500;2022-09-09T07:05:25;99681.94;;;17.43;86.26
15529;BME280;7866;52.280;9.500;2022-09-09T07:10:27;99684.41;;;17.87;84.67
15529;BME280;7866;52.280;9.500;2022-09-09T07:15:30;99672.91;;;18.15;83.07
15529;BME280;7866;52.280;9.500;2022-09-09T07:20:34;99672.78;;;18.45;82.40
15529;BME280;7866;52.280;9.500;2022-09-09T07:25:35;99682.34;;;18.48;82.19
15529;BME280;7866;52.280;9.500;2022-09-09T07:30:38;99684.44;;;18.69;81.71
15529;BME280;7866;52.280;9.500;2022-09-09T07:35:40;99686.56;;;18.67;81.35
15529;BME280;7866;52.280;9.500;2022-09-09T07:40:42;99679.41;;;18.37;82.02
15529;BME280;7866;52.280;9.500;2022-09-09T07:45:45;99690.34;;;18.66;82.08
15529;BME280;7866;52.280;9.500;2022-09-09T07:50:47;99683.53;;;18.75;80.79
15529;BME280;7866;52.280;9.500;2022-09-09T07:55:48;99688.81;;;18.82;80.64
15529;BME280;7866;52.280;9.500;2022-09-09T08:00:51;99693.88;;;18.78;81.09
15529;BME280;7866;52.280;9.500;2022-09-09T08:06:00;99698.03;;;18.45;82.32
15529;BME280;7866;52.280;9.500;2022-09-09T08:11:04;99706.03;;;18.40;82.75
15529;BME280;7866;52.280;9.500;2022-09-09T08:16:11;99706.16;;;18.45;83.09
15529;BME280;7866;52.280;9.500;2022-09-09T08:21:15;99704.72;;;18.55;82.39
15529;BME280;7866;52.280;9.500;2022-09-09T08:26:20;99714.75;;;18.54;82.12
15529;BME280;7866;52.280;9.500;2022-09-09T08:31:27;99714.03;;;18.47;82.56
15529;BME280;7866;52.280;9.500;2022-09-09T08:36:30;99713.47;;;18.57;82.06
15529;BME280;7866;52.280;9.500;2022-09-09T08:41:58;99720.78;;;18.68;81.24
15529;BME280;7866;52.280;9.500;2022-09-09T08:47:07;99729.97;;;18.90;80.83
15529;BME280;7866;52.280;9.500;2022-09-09T08:52:16;99730.19;;;19.01;79.60
15529;BME280;7866;52.280;9.500;2022-09-09T08:57:21;99733.50;;;18.91;79.08
15529;BME280;7866;52.280;9.500;2022-09-09T09:02:34;99735.03;;;18.87;77.68
15529;BME280;7866;52.280;9.500;2022-09-09T09:07:54;99752.22;;;19.16;78.65
15529;BME280;7866;52.280;9.500;2022-09-09T09:12:58;99752.09;;;19.11;78.27
15529;BME280;7866;52.280;9.500;2022-09-09T09:18:03;99740.69;;;19.37;77.66
15529;BME280;7866;52.280;9.500;2022-09-09T09:23:06;99748.88;;;19.66;77.35
15529;BME280;7866;52.280;9.500;2022-09-09T09:28:15;99739.69;;;19.67;76.20
15529;BME280;7866;52.280;9.500;2022-09-09T09:33:23;99741.47;;;20.07;76.80
15529;BME280;7866;52.280;9.500;2022-09-09T09:38:27;99741.53;;;20.29;74.96
15529;BME280;7866;52.280;9.500;2022-09-09T09:43:31;99738.25;;;20.43;73.81
15529;BME280;7866;52.280;9.500;2022-09-09T09:48:34;99739.34;;;20.81;72.66
15529;BME280;7866;52.280;9.500;2022-09-09T09:53:37;99738.00;;;20.45;72.97
15529;BME280;7866;52.280;9.500;2022-09-09T09:58:49;99739.56;;;20.24;73.86
15529;BME280;7866;52.280;9.500;2022-09-09T10:03:54;99732.31;;;20.13;74.73
15529;BME280;7866;52.280;9.500;2022-09-09T10:08:59;99733.06;;;20.59;72.39
15529;BME280;7866;52.280;9.500;2022-09-09T10:14:08;99738.28;;;20.82;70.86
15529;BME280;7866;52.280;9.500;2022-09-09T10:19:20;99734.28;;;20.17;72.49
15529;BME280;7866;52.280;9.500;2022-09-09T10:24:51;99727.50;;;19.86;73.35
15529;BME280;7866;52.280;9.500;2022-09-09T10:30:09;99719.75;;;19.78;74.13
15529;BME280;7866;52.280;9.500;2022-09-09T10:35:24;99723.88;;;19.81;73.53
15529;BME280;7866;52.280;9.500;2022-09-09T10:40:32;99728.03;;;19.83;74.41
15529;BME280;7866;52.280;9.500;2022-09-09T10:45:44;99745.47;;;19.87;74.20
15529;BME280;7866;52.280;9.500;2022-09-09T10:50:55;99748.47;;;19.74;75.22
15529;BME280;7866;52.280;9.500;2022-09-09T10:56:06;99748.75;;;19.73;75.68
15529;BME280;7866;52.280;9.500;2022-09-09T11:01:14;99738.50;;;20.25;74.13
15529;BME280;7866;52.280;9.500;2022-09-09T11:06:20;99756.97;;;20.23;74.00
15529;BME280;7866;52.280;9.500;2022-09-09T11:11:27;99752.34;;;19.78;76.22
15529;BME280;7866;52.280;9.500;2022-09-09T11:16:34;99754.75;;;19.34;78.81
15529;BME280;7866;52.280;9.500;2022-09-09T11:21:45;99759.41;;;19.10;81.11
15529;BME280;7866;52.280;9.500;2022-09-09T11:26:52;99766.31;;;18.78;81.48
15529;BME280;7866;52.280;9.500;2022-09-09T11:32:03;99758.00;;;18.26;82.25
15529;BME280;7866;52.280;9.500;2022-09-09T11:37:28;99763.41;;;18.14;82.30
15529;BME280;7866;52.280;9.500;2022-09-09T11:42:38;99760.06;;;17.70;84.14
15529;BME280;7866;52.280;9.500;2022-09-09T11:47:40;99754.66;;;17.70;85.17
15529;BME280;7866;52.280;9.500;2022-09-09T11:53:05;99749.59;;;17.92;85.31
15529;BME280;7866;52.280;9.500;2022-09-09T11:58:15;99738.34;;;18.42;84.43
15529;BME280;7866;52.280;9.500;2022-09-09T12:03:39;99733.16;;;18.99;81.47
15529;BME280;7866;52.280;9.500;2022-09-09T12:08:47;99727.03;;;19.61;79.45
15529;BME280;7866;52.280;9.500;2022-09-09T12:13:53;99732.22;;;20.25;76.49
15529;BME280;7866;52.280;9.500;2022-09-09T12:19:03;99721.66;;;20.62;74.01
15529;BME280;7866;52.280;9.500;2022-09-09T12:24:09;99715.81;;;21.14;73.42
15529;BME280;7866;52.280;9.500;2022-09-09T12:29:20;99723.03;;;21.25;71.40
15529;BME280;7866;52.280;9.500;2022-09-09T12:34:33;99718.31;;;21.37;71.47
15529;BME280;7866;52.280;9.500;2022-09-09T12:39:40;99728.88;;;21.12;72.10
15529;BME280;7866;52.280;9.500;2022-09-09T12:44:54;99739.66;;;20.63;74.76
15529;BME280;7866;52.280;9.500;2022-09-09T12:49:56;99733.22;;;20.35;76.46
15529;BME280;7866;52.280;9.500;2022-09-09T12:55:01;99715.75;;;19.98;77.46
15529;BME280;7866;52.280;9.500;2022-09-09T13:00:06;99720.56;;;19.79;78.95
15529;BME280;7866;52.280;9.500;2022-09-09T13:05:15;99726.19;;;19.72;79.45
15529;BME280;7866;52.280;9.500;2022-09-09T13:10:24;99715.56;;;19.59;81.71
15529;BME280;7866;52.280;9.500;2022-09-09T13:15:29;99729.00;;;19.37;81.87
15529;BME280;7866;52.280;9.500;2022-09-09T13:20:31;99718.97;;;19.37;82.91
15529;BME280;7866;52.280;9.500;2022-09-09T13:25:34;99719.28;;;19.53;83.33
15529;BME280;7866;52.280;9.500;2022-09-09T13:30:37;99711.91;;;19.65;84.08
15529;BME280;7866;52.280;9.500;2022-09-09T13:35:46;99712.94;;;19.47;82.63
15529;BME280;7866;52.280;9.500;2022-09-09T13:40:54;99706.00;;;19.39;82.91
15529;BME280;7866;52.280;9.500;2022-09-09T13:45:59;99696.94;;;19.51;82.73
15529;BME280;7866;52.280;9.500;2022-09-09T13:51:03;99693.97;;;19.35;81.95
15529;BME280;7866;52.280;9.500;2022-09-09T13:56:07;99683.06;;;19.47;81.80
15529;BME280;7866;52.280;9.500;2022-09-09T14:01:09;99693.50;;;20.01;80.27
15529;BME280;7866;52.280;9.500;2022-09-09T14:06:11;99693.41;;;20.63;77.30
15529;BME280;7866;52.280;9.500;2022-09-09T14:11:15;99694.91;;;20.37;78.57
15529;BME280;7866;52.280;9.500;2022-09-09T14:16:17;99681.94;;;20.44;79.26
15529;BME280;7866;52.280;9.500;2022-09-09T14:21:19;99684.00;;;21.14;76.54
15529;BME280;7866;52.280;9.500;2022-09-09T14:26:23;99667.06;;;21.94;72.78
15529;BME280;7866;52.280;9.500;2022-09-09T14:31:25;99670.50;;;22.53;71.16
15529;BME280;7866;52.280;9.500;2022-09-09T14:36:27;99665.72;;;22.28;72.70
15529;BME280;7866;52.280;9.500;2022-09-09T14:41:30;99663.00;;;21.64;74.77
15529;BME280;7866;52.280;9.500;2022-09-09T14:46:32;99670.38;;;20.92;78.99
15529;BME280;7866;52.280;9.500;2022-09-09T14:51:33;99664.72;;;20.55;81.69
15529;BME280;7866;52.280;9.500;2022-09-09T14:56:36;99663.50;;;20.29;84.55
15529;BME280;7866;52.280;9.500;2022-09-09T15:01:38;99674.81;;;20.21;85.01
15529;BME280;7866;52.280;9.500;2022-09-09T15:06:40;99664.50;;;20.06;86.28
15529;BME280;7866;52.280;9.500;2022-09-09T15:11:45;99663.22;;;19.92;86.96
15529;BME280;7866;52.280;9.500;2022-09-09T15:16:47;99659.34;;;19.71;87.38
15529;BME280;7866;52.280;9.500;2022-09-09T15:21:48;99656.78;;;19.64;87.59
15529;BME280;7866;52.280;9.500;2022-09-09T15:26:52;99646.25;;;19.68;87.72
15529;BME280;7866;52.280;9.500;2022-09-09T15:31:54;99664.50;;;20.23;86.04
15529;BME280;7866;52.280;9.500;2022-09-09T15:36:56;99657.47;;;20.44;85.06
15529;BME280;7866;52.280;9.500;2022-09-09T15:42:01;99665.56;;;20.78;82.87
15529;BME280;7866;52.280;9.500;2022-09-09T15:47:03;99662.72;;;21.11;82.11
15529;BME280;7866;52.280;9.500;2022-09-09T15:52:05;99666.88;;;20.97;81.80
15529;BME280;7866;52.280;9.500;2022-09-09T15:57:11;99666.00;;;20.70;82.63
15529;BME280;7866;52.280;9.500;2022-09-09T16:02:13;99661.44;;;20.36;83.57
15529;BME280;7866;52.280;9.500;2022-09-09T16:07:15;99661.88;;;19.94;84.76
15529;BME280;7866;52.280;9.500;2022-09-09T16:12:18;99670.03;;;19.78;86.12
15529;BME280;7866;52.280;9.500;2022-09-09T16:17:20;99671.16;;;19.65;86.51
15529;BME280;7866;52.280;9.500;2022-09-09T16:22:21;99677.41;;;19.37;87.54
15529;BME280;7866;52.280;9.500;2022-09-09T16:27:25;99669.41;;;19.30;88.06
15529;BME280;7866;52.280;9.500;2022-09-09T16:32:26;99661.19;;;19.25;88.16
15529;BME280;7866;52.280;9.500;2022-09-09T16:37:29;99656.53;;;19.09;88.12
15529;BME280;7866;52.280;9.500;2022-09-09T16:42:33;99660.66;;;19.11;88.04
15529;BME280;7866;52.280;9.500;2022-09-09T16:47:34;99667.63;;;19.07;88.38
15529;BME280;7866;52.280;9.500;2022-09-09T16:52:36;99676.00;;;19.06;88.33
15529;BME280;7866;52.280;9.500;2022-09-09T16:57:39;99679.56;;;18.94;88.49
15529;BME280;7866;52.280;9.500;2022-09-09T17:02:41;99700.72;;;18.92;89.22
15529;BME280;7866;52.280;9.500;2022-09-09T17:07:43;99708.41;;;18.84;89.33
15529;BME280;7866;52.280;9.500;2022-09-09T17:12:46;99713.47;;;18.80;86.68
15529;BME280;7866;52.280;9.500;2022-09-09T17:17:48;99675.75;;;18.55;87.51
15529;BME280;7866;52.280;9.500;2022-09-09T17:22:53;99685.88;;;18.36;88.88
15529;BME280;7866;52.280;9.500;2022-09-09T17:27:56;99679.03;;;18.22;90.11
15529;BME280;7866;52.280;9.500;2022-09-09T17:32:59;99687.41;;;18.20;90.81
15529;BME280;7866;52.280;9.500;2022-09-09T17:38:00;99693.28;;;18.06;91.59
15529;BME280;7866;52.280;9.500;2022-09-09T17:43:03;99691.00;;;17.79;92.13
15529;BME280;7866;52.280;9.500;2022-09-09T17:48:05;99701.63;;;17.81;92.60
15529;BME280;7866;52.280;9.500;2022-09-09T17:53:07;99701.38;;;17.82;92.43
15529;BME280;7866;52.280;9.500;2022-09-09T17:58:10;99702.19;;;17.83;92.35
15529;BME280;7866;52.280;9.500;2022-09-09T18:03:11;99699.97;;;17.80;92.14
15529;BME280;7866;52.280;9.500;2022-09-09T18:08:13;99722.91;;;17.77;92.09
15529;BME280;7866;52.280;9.500;2022-09-09T18:13:16;99742.50;;;17.61;91.79
15529;BME280;7866;52.280;9.500;2022-09-09T18:18:18;99752.09;;;17.45;91.98
15529;BME280;7866;52.280;9.500;2022-09-09T18:23:20;99763.00;;;17.38;92.35
15529;BME280;7866;52.280;9.500;2022-09-09T18:28:23;99800.00;;;17.26;91.72
15529;BME280;7866;52.280;9.500;2022-09-09T18:33:25;99840.06;;;17.17;90.39
15529;BME280;7866;52.280;9.500;2022-09-09T18:38:26;99843.59;;;16.99;90.35
15529;BME280;7866;52.280;9.500;2022-09-09T18:43:29;99819.50;;;16.91;90.01
15529;BME280;7866;52.280;9.500;2022-09-09T18:48:31;99810.88;;;16.83;90.17
15529;BME280;7866;52.280;9.500;2022-09-09T18:53:34;99805.97;;;16.73;90.46
15529;BME280;7866;52.280;9.500;2022-09-09T18:58:38;99801.69;;;16.59;91.26
15529;BME280;7866;52.280;9.500;2022-09-09T19:03:42;99804.56;;;16.39;91.75
15529;BME280;7866;52.280;9.500;2022-09-09T19:08:45;99794.41;;;16.34;92.31
15529;BME280;7866;52.280;9.500;2022-09-09T19:13:51;99787.00;;;16.23;92.47
15529;BME280;7866;52.280;9.500;2022-09-09T19:18:53;99785.75;;;16.25;92.29
15529;BME280;7866;52.280;9.500;2022-09-09T19:23:56;99791.00;;;16.20;92.26
15529;BME280;7866;52.280;9.500;2022-09-09T19:29:00;99792.97;;;16.32;92.10
15529;BME280;7866;52.280;9.500;2022-09-09T19:34:03;99793.63;;;16.27;91.91
15529;BME280;7866;52.280;9.500;2022-09-09T19:39:05;99799.78;;;16.16;91.74
15529;BME280;7866;52.280;9.500;2022-09-09T19:44:11;99791.22;;;16.19;91.91
15529;BME280;7866;52.280;9.500;2022-09-09T19:49:13;99793.50;;;16.15;92.69
15529;BME280;7866;52.280;9.500;2022-09-09T19:54:15;99794.28;;;16.22;92.65
15529;BME280;7866;52.280;9.500;2022-09-09T19:59:18;99796.56;;;16.25;92.22
15529;BME280;7866;52.280;9.500;2022-09-09T20:04:20;99809.78;;;16.09;92.73
15529;BME280;7866;52.280;9.500;2022-09-09T20:09:21;99810.47;;;16.29;92.87
15529;BME280;7866;52.280;9.500;2022-09-09T20:14:26;99812.94;;;16.31;92.25
15529;BME280;7866;52.280;9.500;2022-09-09T20:19:28;99805.50;;;16.26;92.44
15529;BME280;7866;52.280;9.500;2022-09-09T20:24:30;99811.22;;;16.11;92.87
15529;BME280;7866;52.280;9.500;2022-09-09T20:29:35;99805.25;;;16.02;93.21
15529;BME280;7866;52.280;9.500;2022-09-09T20:34:36;99818.81;;;15.96;93.26
15529;BME280;7866;52.280;9.500;2022-09-09T20:39:38;99817.75;;;15.97;93.45
15529;BME280;7866;52.280;9.500;2022-09-09T20:44:41;99811.19;;;15.80;93.47
15529;BME280;7866;52.280;9.500;2022-09-09T20:49:42;99809.34;;;15.80;93.92
15529;BME280;7866;52.280;9.500;2022-09-09T20:54:44;99821.00;;;15.74;93.69
15529;BME280;7866;52.280;9.500;2022-09-09T20:59:48;99826.38;;;15.81;93.53
15529;BME280;7866;52.280;9.500;2022-09-09T21:04:50;99827.63;;;15.78;93.50
15529;BME280;7866;52.280;9.500;2022-09-09T21:09:52;99829.25;;;15.79;93.81
15529;BME280;7866;52.280;9.500;2022-09-09T21:14:58;99831.78;;;15.74;93.55
15529;BME280;7866;52.280;9.500;2022-09-09T21:20:00;99837.41;;;15.72;93.63
15529;BME280;7866;52.280;9.500;2022-09-09T21:25:03;99841.13;;;15.71;93.58
15529;BME280;7866;52.280;9.500;2022-09-09T21:30:08;99839.47;;;15.77;93.83
15529;BME280;7866;52.280;9.500;2022-09-09T21:35:10;99840.69;;;15.81;93.66
15529;BME280;7866;52.280;9.500;2022-09-09T21:40:12;99851.09;;;15.77;93.29
15529;BME280;7866;52.280;9.500;2022-09-09T21:45:15;99847.75;;;15.75;93.38
15529;BME280;7866;52.280;9.500;2022-09-09T21:50:18;99848.56;;;15.83;93.49
15529;BME280;7866;52.280;9.500;2022-09-09T21:55:21;99849.78;;;15.87;93.69
15529;BME280;7866;52.280;9.500;2022-09-09T22:00:25;99856.72;;;15.76;93.26
15529;BME280;7866;52.280;9.500;2022-09-09T22:05:27;99852.75;;;15.79;93.10
15529;BME280;7866;52.280;9.500;2022-09-09T22:10:29;99838.16;;;15.86;92.97
15529;BME280;7866;52.280;9.500;2022-09-09T22:15:32;99849.78;;;15.87;92.81
15529;BME280;7866;52.280;9.500;2022-09-09T22:20:39;99845.22;;;15.87;93.03
15529;BME280;7866;52.280;9.500;2022-09-09T22:25:41;99840.69;;;15.81;93.18
15529;BME280;7866;52.280;9.500;2022-09-09T22:30:45;99850.63;;;15.87;93.51
15529;BME280;7866;52.280;9.500;2022-09-09T22:35:47;99850.19;;;15.90;93.39
15529;BME280;7866;52.280;9.500;2022-09-09T22:40:48;99850.69;;;15.74;93.22
15529;BME280;7866;52.280;9.500;2022-09-09T22:45:52;99859.63;;;15.74;93.00
15529;BME280;7866;52.280;9.500;2022-09-09T22:50:59;99855.28;;;15.73;92.63
15529;BME280;7866;52.280;9.500;2022-09-09T22:56:04;99856.50;;;15.71;92.56
15529;BME280;7866;52.280;9.500;2022-09-09T23:01:09;99855.66;;;15.77;92.77
15529;BME280;7866;52.280;9.500;2022-09-09T23:06:15;99850.94;;;15.66;92.26
15529;BME280;7866;52.280;9.500;2022-09-09T23:11:19;99856.53;;;15.64;92.03
15529;BME280;7866;52.280;9.500;2022-09-09T23:16:24;99857.38;;;15.58;91.53
15529;BME280;7866;52.280;9.500;2022-09-09T23:21:27;99842.63;;;15.61;91.65
15529;BME280;7866;52.280;9.500;2022-09-09T23:26:29;99842.00;;;15.59;91.75
15529;BME280;7866;52.280;9.500;2022-09-09T23:31:34;99848.03;;;15.61;90.95
15529;BME280;7866;52.280;9.500;2022-09-09T23:36:37;99842.41;;;15.62;90.69
15529;BME280;7866;52.280;9.500;2022-09-09T23:41:38;99840.13;;;15.59;90.98
15529;BME280;7866;52.280;9.500;2022-09-09T23:46:42;99839.31;;;15.59;90.48
15529;BME280;7866;52.280;9.500;2022-09-09T23:51:43;99833.09;;;15.65;90.99
15529;BME280;7866;52.280;9.500;2022-09-09T23:56:48;99832.25;;;15.64;90.66
